Carrigaline, Ireland
Current Conditions -  °F | °C
As of 5:00 PM on Friday 31 Oct 2014 (Local Time) from EICK Reporting Station
Broken Clouds Broken Clouds  
Wind Chill: 55°   Ceiling: 700
Heat Index: 55°   Visibility: 6mi
Dew Point: 55°   Wind: 12mph
Humidity: 100%   Direction: 210°SSW
Pressure: 29.71"   Gusts: NA
Location:  51.81°N, 8.39°W
Report Text: EICK 311700Z 21010KT 9999 FEW002 SCT004 BKN007 13/13 Q1006 TEMPO 5000
Loading
Personal Weather Stations






























Interactive Weather Map New forecast layout! Learn more

10-Day Weather Forecast

Advertisements
Track Severe Weather on mobile